createdAt,value
2022-10-09T00:03:29.966Z,100.00
2022-10-09T00:08:55.158Z,100.00
2022-10-09T00:14:19.069Z,100.00
2022-10-09T00:19:43.290Z,100.00
2022-10-09T00:25:10.652Z,100.00
2022-10-09T00:30:35.362Z,100.00
2022-10-09T00:35:59.465Z,100.00
2022-10-09T00:41:27.994Z,100.00
2022-10-09T00:46:53.677Z,100.00
2022-10-09T00:52:21.616Z,100.00
2022-10-09T00:57:48.097Z,100.00
2022-10-09T01:03:12.030Z,100.00
2022-10-09T01:08:40.423Z,100.00
2022-10-09T01:14:15.254Z,100.00
2022-10-09T01:20:01.443Z,100.00
2022-10-09T01:25:33.702Z,100.00
2022-10-09T01:31:03.639Z,100.00
2022-10-09T01:36:29.339Z,100.00
2022-10-09T01:41:56.007Z,100.00
2022-10-09T01:47:22.751Z,100.00
2022-10-09T01:52:51.818Z,100.00
2022-10-09T01:58:23.226Z,100.00
2022-10-09T02:03:51.339Z,100.00
2022-10-09T02:09:17.784Z,100.00
2022-10-09T02:14:41.964Z,100.00
2022-10-09T02:20:13.533Z,100.00
2022-10-09T02:25:40.494Z,100.00
2022-10-09T02:31:12.436Z,100.00
2022-10-09T02:36:39.277Z,100.00
2022-10-09T02:42:03.645Z,100.00
2022-10-09T02:47:27.444Z,100.00
2022-10-09T02:52:53.253Z,100.00
2022-10-09T02:58:17.939Z,100.00
2022-10-09T03:03:47.705Z,100.00
2022-10-09T03:09:13.240Z,100.00
2022-10-09T03:14:37.532Z,100.00
2022-10-09T03:20:01.694Z,100.00
2022-10-09T03:25:27.497Z,100.00
2022-10-09T03:30:51.824Z,100.00
2022-10-09T03:36:15.761Z,100.00
2022-10-09T03:41:41.399Z,100.00
2022-10-09T03:52:59.752Z,100.00
2022-10-09T03:58:26.147Z,100.00
2022-10-09T04:03:51.991Z,100.00
2022-10-09T04:09:18.846Z,100.00
2022-10-09T04:14:45.281Z,100.00
2022-10-09T04:20:10.444Z,100.00
2022-10-09T04:25:35.349Z,100.00
2022-10-09T04:31:02.575Z,100.00
2022-10-09T04:36:26.953Z,100.00
2022-10-09T04:41:52.830Z,100.00
2022-10-09T04:47:20.431Z,100.00
2022-10-09T04:52:46.905Z,97.83
2022-10-09T04:58:13.191Z,92.38
2022-10-09T05:03:39.323Z,87.97
2022-10-09T05:09:03.944Z,81.97
2022-10-09T05:14:28.701Z,71.12
2022-10-09T05:19:55.792Z,65.69
2022-10-09T05:25:22.041Z,61.47
2022-10-09T05:30:46.750Z,56.49
2022-10-09T05:36:13.593Z,53.20
2022-10-09T05:41:38.131Z,51.15
2022-10-09T05:47:02.763Z,50.08
2022-10-09T05:52:28.730Z,51.31
2022-10-09T05:57:54.051Z,49.21
2022-10-09T06:03:18.835Z,46.58
2022-10-09T06:08:46.634Z,44.67
2022-10-09T06:14:14.263Z,43.51
2022-10-09T06:19:39.388Z,43.90
2022-10-09T06:25:06.095Z,44.84
2022-10-09T06:30:32.806Z,45.47
2022-10-09T06:36:09.757Z,45.30
2022-10-09T06:41:36.429Z,43.55
2022-10-09T06:47:10.029Z,44.06
2022-10-09T06:52:34.098Z,43.34
2022-10-09T06:57:59.812Z,43.56
2022-10-09T07:03:23.792Z,43.25
2022-10-09T07:08:50.614Z,41.50
2022-10-09T07:14:16.855Z,40.47
2022-10-09T07:19:42.612Z,39.25
2022-10-09T07:25:08.090Z,39.00
2022-10-09T07:30:33.742Z,38.70
2022-10-09T07:35:59.757Z,36.78
2022-10-09T07:41:27.072Z,36.08
2022-10-09T07:46:52.606Z,36.12
2022-10-09T07:52:16.867Z,36.65
2022-10-09T07:57:40.905Z,37.03
2022-10-09T08:03:06.677Z,36.18
2022-10-09T08:08:31.480Z,34.36
2022-10-09T08:13:56.093Z,35.65
2022-10-09T08:19:21.271Z,37.63
2022-10-09T08:24:45.268Z,38.03
2022-10-09T08:30:10.365Z,37.43
2022-10-09T08:35:37.664Z,37.06
2022-10-09T08:41:07.692Z,37.27
2022-10-09T08:46:41.498Z,39.15
2022-10-09T08:52:18.024Z,38.17
2022-10-09T08:57:42.352Z,36.26
2022-10-09T09:03:34.867Z,35.40
2022-10-09T09:09:09.060Z,36.31
2022-10-09T09:14:47.631Z,36.10
2022-10-09T09:20:18.527Z,36.25
2022-10-09T09:25:46.971Z,35.94
2022-10-09T09:31:18.402Z,36.17
2022-10-09T09:36:50.498Z,36.78
2022-10-09T09:42:19.359Z,36.88
2022-10-09T09:47:49.999Z,37.64
2022-10-09T09:53:20.717Z,37.51
2022-10-09T09:58:51.269Z,38.31
2022-10-09T10:04:21.863Z,40.64
2022-10-09T10:10:02.935Z,42.78
2022-10-09T10:15:31.241Z,44.96
2022-10-09T10:20:57.851Z,47.00
2022-10-09T10:26:29.511Z,49.21
2022-10-09T10:32:03.497Z,50.97
2022-10-09T10:37:33.111Z,52.56
2022-10-09T10:43:19.533Z,53.87
2022-10-09T10:48:48.280Z,55.27
2022-10-09T10:54:34.145Z,55.08
2022-10-09T11:00:06.443Z,55.86
2022-10-09T11:05:48.354Z,56.40
2022-10-09T11:11:19.267Z,58.05
2022-10-09T11:16:54.503Z,58.97
2022-10-09T11:22:40.510Z,60.58
2022-10-09T11:28:12.381Z,61.14
2022-10-09T11:33:41.307Z,62.25
2022-10-09T11:39:12.224Z,63.77
2022-10-09T11:44:47.273Z,64.69
2022-10-09T11:50:34.965Z,66.34
2022-10-09T11:56:09.175Z,67.21
2022-10-09T12:01:37.929Z,68.52
2022-10-09T12:07:07.194Z,68.39
2022-10-09T12:12:33.544Z,70.62
2022-10-09T12:17:57.977Z,70.83
2022-10-09T12:23:27.413Z,72.32
2022-10-09T12:28:56.995Z,74.95
2022-10-09T12:34:26.611Z,76.04
2022-10-09T12:39:51.584Z,77.13
2022-10-09T12:45:20.844Z,77.30
2022-10-09T12:50:45.536Z,77.88
2022-10-09T12:56:13.539Z,78.55
2022-10-09T13:01:41.345Z,79.31
2022-10-09T13:07:23.110Z,78.67
2022-10-09T13:12:52.969Z,78.72
2022-10-09T13:18:24.048Z,79.75
2022-10-09T13:23:49.707Z,80.69
2022-10-09T13:29:15.627Z,80.06
2022-10-09T13:34:43.256Z,81.03
2022-10-09T13:40:12.912Z,82.06
2022-10-09T13:45:37.111Z,82.75
2022-10-09T13:51:03.308Z,83.11
2022-10-09T13:56:27.909Z,82.66
2022-10-09T14:01:56.814Z,83.26
2022-10-09T14:07:22.668Z,83.78
2022-10-09T14:12:50.425Z,84.93
2022-10-09T14:18:15.309Z,85.77
2022-10-09T14:23:40.279Z,86.45
2022-10-09T14:29:04.576Z,86.67
2022-10-09T14:34:28.234Z,86.31
2022-10-09T14:39:55.034Z,86.93
2022-10-09T14:45:19.061Z,87.66
2022-10-09T14:50:43.277Z,88.32
2022-10-09T14:56:13.865Z,88.89
2022-10-09T15:01:38.129Z,90.07
2022-10-09T15:07:03.244Z,90.69
2022-10-09T15:12:29.566Z,90.79
2022-10-09T15:17:55.829Z,92.51
2022-10-09T15:23:20.548Z,92.60
2022-10-09T15:28:46.829Z,93.97
2022-10-09T15:34:17.709Z,95.06
2022-10-09T15:39:43.260Z,95.01
2022-10-09T15:45:10.254Z,95.96
2022-10-09T15:50:37.228Z,95.76
2022-10-09T15:56:05.923Z,96.67
2022-10-09T16:01:31.141Z,96.80
2022-10-09T16:06:55.214Z,97.04
2022-10-09T16:12:20.152Z,96.67
2022-10-09T16:17:45.854Z,97.12
2022-10-09T16:23:10.380Z,97.68
2022-10-09T16:28:36.006Z,97.67
2022-10-09T16:34:02.301Z,98.13
2022-10-09T16:39:26.851Z,98.87
2022-10-09T16:44:53.832Z,98.98
2022-10-09T16:50:19.992Z,98.87
2022-10-09T16:55:44.501Z,99.10
2022-10-09T17:01:10.209Z,98.94
2022-10-09T17:06:40.366Z,99.89
2022-10-09T17:12:05.124Z,100.00
2022-10-09T17:17:29.851Z,100.00
2022-10-09T17:22:58.543Z,100.00
2022-10-09T17:28:22.749Z,100.00
2022-10-09T17:33:48.478Z,100.00
2022-10-09T17:39:18.604Z,100.00
2022-10-09T17:44:42.530Z,100.00
2022-10-09T17:50:08.087Z,100.00
2022-10-09T17:55:33.647Z,100.00
2022-10-09T18:00:58.528Z,100.00
2022-10-09T18:06:23.932Z,100.00
2022-10-09T18:11:50.186Z,100.00
2022-10-09T18:17:14.976Z,100.00
2022-10-09T18:22:42.332Z,100.00
2022-10-09T18:28:07.598Z,100.00
2022-10-09T18:33:32.051Z,100.00
2022-10-09T18:38:59.856Z,100.00
2022-10-09T18:44:27.087Z,100.00
2022-10-09T18:49:56.106Z,100.00
2022-10-09T18:55:20.124Z,100.00
2022-10-09T19:00:45.501Z,100.00
2022-10-09T19:06:11.278Z,100.00
2022-10-09T19:11:36.296Z,100.00
2022-10-09T19:17:01.983Z,100.00
2022-10-09T19:22:26.340Z,100.00
2022-10-09T19:27:50.889Z,100.00
2022-10-09T19:33:21.115Z,100.00
2022-10-09T19:38:45.865Z,100.00
2022-10-09T19:44:10.287Z,100.00
2022-10-09T19:49:36.831Z,100.00
2022-10-09T19:55:00.843Z,100.00
2022-10-09T20:00:25.220Z,100.00
2022-10-09T20:05:50.593Z,100.00
2022-10-09T20:11:15.263Z,100.00
2022-10-09T20:16:40.025Z,100.00
2022-10-09T20:22:05.237Z,100.00
2022-10-09T20:27:31.067Z,100.00
2022-10-09T20:32:59.088Z,100.00
2022-10-09T20:38:25.986Z,100.00
2022-10-09T20:43:54.146Z,100.00
2022-10-09T20:49:18.890Z,100.00
2022-10-09T20:54:46.248Z,100.00
2022-10-09T21:00:12.952Z,100.00
2022-10-09T21:05:41.506Z,100.00
2022-10-09T21:11:11.574Z,100.00
2022-10-09T21:16:39.040Z,100.00
2022-10-09T21:22:03.741Z,100.00
2022-10-09T21:27:30.312Z,100.00
2022-10-09T21:32:55.114Z,100.00
2022-10-09T21:38:22.025Z,100.00
2022-10-09T21:43:47.805Z,100.00
2022-10-09T21:49:20.765Z,100.00
2022-10-09T21:54:46.263Z,100.00
2022-10-09T22:00:13.504Z,100.00
2022-10-09T22:05:40.459Z,100.00
2022-10-09T22:11:05.533Z,100.00
2022-10-09T22:16:31.271Z,100.00
2022-10-09T22:21:56.721Z,100.00
2022-10-09T22:27:24.516Z,100.00
2022-10-09T22:32:51.112Z,100.00
2022-10-09T22:38:15.797Z,100.00
2022-10-09T22:43:41.336Z,100.00
2022-10-09T22:49:08.582Z,100.00
2022-10-09T22:54:34.348Z,100.00
2022-10-09T23:00:00.876Z,100.00
2022-10-09T23:05:26.102Z,100.00
2022-10-09T23:10:51.468Z,100.00
2022-10-09T23:16:16.411Z,100.00
2022-10-09T23:21:43.724Z,100.00
2022-10-09T23:27:08.342Z,100.00
2022-10-09T23:32:31.933Z,100.00
2022-10-09T23:37:57.143Z,100.00
2022-10-09T23:43:23.597Z,100.00
2022-10-09T23:48:48.826Z,100.00
2022-10-09T23:54:14.500Z,100.00
2022-10-09T23:59:39.572Z,100.00
